Hutchinson Municipal Airport
KHUT : now visible

Airfield :











YOU CAN JOIN US ON...

 
LOGIN :

Register | Disclaimer

   EN    FR    IT 

 









Legend :    VFR   Marginal VFR   IFR   Intensive IFR   Very Intensive IFR
Visi :
Ceiling :
>= 8 km
>= 3000ft
5 to 8 km
1000 to 3000 ft
1500m to 5 km
500 to 1000 ft
800 to 1500m
200 to 500 ft
< 800m
< 200 ft
Symbols :   Thunderstorms  Fog  Heavy snow  Heavy precipitations  Wind > 20 kt






- Airport Elevation : 1543 ft


KHUT - Hutchinson Municipal

CURRENT METAR :
  • 202052Z 27008KT 10SM CLR 40/14 A2959 RMK AO2 SLP991 T04000139 56008

EXPIRED METARs :
  • 201952Z 18009G15KT 10SM CLR 39/15 A2960 RMK AO2 SLP993 T03890150
  • 201852Z 20009KT 10SM CLR 37/15 A2960 RMK AO2 SLP995 T03720150

TAF KHUT
Valid from the 20 at 18:00 until the 21 at 18:00 UTC


201722Z 2018/2118 24013KT P6SM SCT250
FM210000 35015G23KT P6SM SCT250
FM210400 01012KT P6SM VCTS BKN080CB BKN120
FM210800 01015G23KT P6SM -SHRA VCTS OVC090CB
FM211300 01013KT P6SM OVC070
FM211500 02008KT P6SM OVC035
KZKC FIR / North America



MET'MAP, your aeronautical weather chart ! - Copyright ORBIFLY December 2007 - Disclaimer

ORBIFLY MET'MAP TEAM :

Programming & Development : Alexandra Zaïnal
Concept & original design : Baudouin d'Aumeries
Assistance for programming : Marc-Olivier Méhu
Technical & hardware support : Manuel Goepfert

Contact : metmap@orbifly.com




SOURCES & CREDITS :

   NOAA       Earth
Advisory